createdAt,value
2019-02-24T00:01:58.015Z,2.10
2019-02-24T00:04:48.897Z,2.47
2019-02-24T00:07:39.100Z,1.97
2019-02-24T00:10:29.374Z,2.77
2019-02-24T00:13:20.013Z,2.70
2019-02-24T00:16:10.539Z,2.87
2019-02-24T00:19:00.733Z,3.00
2019-02-24T00:21:51.130Z,2.30
2019-02-24T00:24:40.979Z,2.10
2019-02-24T00:27:31.936Z,2.70
2019-02-24T00:30:22.457Z,2.57
2019-02-24T00:33:12.896Z,2.20
2019-02-24T00:36:03.542Z,2.93
2019-02-24T00:38:54.045Z,2.43
2019-02-24T00:41:44.293Z,3.20
2019-02-24T00:44:36.175Z,2.83
2019-02-24T00:47:26.534Z,3.23
2019-02-24T00:50:16.874Z,3.03
2019-02-24T00:53:07.454Z,3.20
2019-02-24T00:55:57.377Z,2.37
2019-02-24T00:58:48.013Z,2.63
2019-02-24T01:01:39.755Z,3.00
2019-02-24T01:04:30.253Z,2.60
2019-02-24T01:07:20.230Z,2.80
2019-02-24T01:10:11.112Z,2.67
2019-02-24T01:13:01.613Z,2.47
2019-02-24T01:15:52.572Z,2.23
2019-02-24T01:18:43.492Z,2.37
2019-02-24T01:21:34.113Z,2.97
2019-02-24T01:24:26.493Z,3.20
2019-02-24T01:27:16.595Z,2.23
2019-02-24T01:30:08.697Z,2.80
2019-02-24T01:32:58.693Z,2.73
2019-02-24T01:35:49.159Z,2.60
2019-02-24T01:38:39.692Z,1.37
2019-02-24T01:41:30.152Z,2.83
2019-02-24T01:44:21.053Z,2.00
2019-02-24T01:47:11.548Z,2.47
2019-02-24T01:50:01.832Z,2.67
2019-02-24T01:52:52.018Z,1.57
2019-02-24T01:55:42.635Z,2.63
2019-02-24T01:58:35.420Z,1.70
2019-02-24T02:01:25.372Z,2.20
2019-02-24T02:04:15.812Z,1.87
2019-02-24T02:07:06.483Z,2.30
2019-02-24T02:09:56.611Z,1.60
2019-02-24T02:12:47.932Z,2.90
2019-02-24T02:15:39.773Z,2.17
2019-02-24T02:18:30.513Z,1.87
2019-02-24T02:21:21.192Z,1.90
2019-02-24T02:24:11.439Z,2.20
2019-02-24T02:27:02.335Z,2.03
2019-02-24T02:29:52.592Z,2.13
2019-02-24T02:32:42.852Z,2.23
2019-02-24T02:35:33.713Z,2.77
2019-02-24T02:38:24.895Z,2.60
2019-02-24T02:41:15.292Z,2.70
2019-02-24T02:44:07.513Z,2.97
2019-02-24T02:46:57.874Z,1.63
2019-02-24T02:49:50.534Z,2.43
2019-02-24T02:52:40.662Z,1.93
2019-02-24T02:55:30.914Z,2.00
2019-02-24T02:58:21.858Z,2.00
2019-02-24T03:04:45.699Z,2.10
2019-02-24T03:07:42.963Z,1.53
2019-02-24T03:10:34.680Z,2.07
2019-02-24T03:13:24.842Z,3.03
2019-02-24T03:16:16.739Z,2.67
2019-02-24T03:19:07.101Z,2.30
2019-02-24T03:21:57.160Z,2.23
2019-02-24T03:24:47.519Z,2.50
2019-02-24T03:27:37.698Z,3.30
2019-02-24T03:30:28.414Z,2.77
2019-02-24T03:33:18.980Z,3.73
2019-02-24T03:36:09.278Z,2.60
2019-02-24T03:38:59.599Z,2.60
2019-02-24T03:41:49.778Z,2.07
2019-02-24T03:44:40.901Z,1.73
2019-02-24T03:47:31.438Z,2.43
2019-02-24T03:50:23.318Z,2.50
2019-02-24T03:53:13.366Z,3.20
2019-02-24T03:56:05.438Z,2.70
2019-02-24T03:58:55.880Z,1.97
2019-02-24T04:01:46.179Z,2.60
2019-02-24T04:04:36.541Z,2.17
2019-02-24T04:07:27.158Z,3.17
2019-02-24T04:10:18.500Z,2.83
2019-02-24T04:13:09.041Z,3.10
2019-02-24T04:15:59.055Z,2.47
2019-02-24T04:18:49.739Z,2.67
2019-02-24T04:21:40.078Z,2.10
2019-02-24T04:24:30.661Z,2.47
2019-02-24T04:27:20.942Z,2.57
2019-02-24T04:30:11.759Z,3.70
2019-02-24T04:33:02.638Z,2.07
2019-02-24T04:35:53.119Z,2.83
2019-02-24T04:38:44.098Z,2.10
2019-02-24T04:41:34.302Z,2.30
2019-02-24T04:44:24.326Z,2.30
2019-02-24T04:47:14.921Z,2.37
2019-02-24T04:50:05.279Z,2.03
2019-02-24T04:52:56.562Z,2.00
2019-02-24T04:55:46.804Z,1.67
2019-02-24T04:58:37.283Z,1.50
2019-02-24T05:01:27.619Z,1.77
2019-02-24T05:04:17.867Z,3.13
2019-02-24T05:07:08.458Z,2.07
2019-02-24T05:09:58.742Z,2.57
2019-02-24T05:12:49.539Z,1.43
2019-02-24T05:15:39.504Z,2.40
2019-02-24T05:18:30.102Z,2.27
2019-02-24T05:21:20.883Z,1.87
2019-02-24T05:24:12.980Z,1.50
2019-02-24T05:27:03.358Z,2.00
2019-02-24T05:29:54.139Z,1.57
2019-02-24T05:32:44.899Z,2.77
2019-02-24T05:35:35.918Z,1.73
2019-02-24T05:38:26.478Z,1.53
2019-02-24T05:41:16.682Z,1.70
2019-02-24T05:44:07.085Z,2.00
2019-02-24T05:46:58.179Z,3.17
2019-02-24T05:49:48.320Z,1.53
2019-02-24T05:52:39.300Z,1.93
2019-02-24T05:55:30.180Z,1.53
2019-02-24T05:58:21.649Z,3.10
2019-02-24T06:01:16.253Z,2.67
2019-02-24T06:04:06.500Z,2.83
2019-02-24T06:06:56.440Z,2.03
2019-02-24T06:09:46.418Z,2.20
2019-02-24T06:12:37.039Z,2.57
2019-02-24T06:15:27.079Z,4.00
2019-02-24T06:18:18.019Z,2.97
2019-02-24T06:21:08.719Z,2.67
2019-02-24T06:24:00.238Z,2.80
2019-02-24T06:26:50.224Z,2.57
2019-02-24T06:29:40.719Z,2.37
2019-02-24T06:32:31.059Z,3.00
2019-02-24T06:35:21.372Z,1.83
2019-02-24T06:38:12.099Z,2.13
2019-02-24T06:41:02.979Z,2.23
2019-02-24T06:43:53.520Z,1.93
2019-02-24T06:46:44.759Z,2.23
2019-02-24T06:49:35.280Z,2.47
2019-02-24T06:52:27.983Z,2.50
2019-02-24T06:55:18.383Z,3.53
2019-02-24T06:58:08.900Z,2.20
2019-02-24T07:01:00.082Z,2.30
2019-02-24T07:03:50.959Z,3.07
2019-02-24T07:06:41.263Z,2.90
2019-02-24T07:09:31.779Z,2.57
2019-02-24T07:12:22.159Z,2.60
2019-02-24T07:15:12.579Z,2.07
2019-02-24T07:18:02.801Z,3.33
2019-02-24T07:20:53.378Z,2.67
2019-02-24T07:23:44.239Z,2.30
2019-02-24T07:26:34.678Z,2.97
2019-02-24T07:29:25.300Z,2.10
2019-02-24T07:32:15.620Z,2.80
2019-02-24T07:35:06.599Z,2.33
2019-02-24T07:37:58.659Z,3.33
2019-02-24T07:40:49.299Z,3.00
2019-02-24T07:43:39.503Z,2.10
2019-02-24T07:46:29.379Z,2.37
2019-02-24T07:49:19.869Z,3.00
2019-02-24T07:52:09.578Z,2.30
2019-02-24T07:55:00.440Z,2.60
2019-02-24T07:57:50.258Z,2.70
2019-02-24T08:00:40.907Z,2.83
2019-02-24T08:03:30.869Z,5.13
2019-02-24T08:06:21.831Z,4.67
2019-02-24T08:09:12.954Z,4.43
2019-02-24T08:12:04.822Z,7.87
2019-02-24T08:14:55.274Z,6.43
2019-02-24T08:17:46.172Z,5.43
2019-02-24T08:20:36.919Z,5.13
2019-02-24T08:23:27.280Z,3.93
2019-02-24T08:26:17.483Z,3.97
2019-02-24T08:29:08.119Z,4.40
2019-02-24T08:31:58.459Z,5.77
2019-02-24T08:34:48.896Z,5.13
2019-02-24T08:37:39.823Z,4.87
2019-02-24T08:40:30.458Z,5.57
2019-02-24T08:43:20.898Z,5.03
2019-02-24T08:46:11.356Z,6.10
2019-02-24T08:49:02.343Z,5.70
2019-02-24T08:51:52.685Z,6.60
2019-02-24T08:54:42.939Z,6.27
2019-02-24T08:57:33.299Z,6.33
2019-02-24T09:00:23.703Z,9.73
2019-02-24T09:03:14.381Z,7.90
2019-02-24T09:06:05.060Z,7.30
2019-02-24T09:08:55.599Z,7.53
2019-02-24T09:11:45.904Z,6.90
2019-02-24T09:14:36.480Z,6.97
2019-02-24T09:17:26.971Z,6.93
2019-02-24T09:20:18.178Z,7.43
2019-02-24T09:23:09.363Z,6.83
2019-02-24T09:25:59.663Z,6.50
2019-02-24T09:28:50.863Z,6.47
2019-02-24T09:31:41.379Z,6.00
2019-02-24T09:34:31.954Z,7.30
2019-02-24T09:37:22.742Z,6.47
2019-02-24T09:40:13.599Z,6.50
2019-02-24T09:43:04.281Z,7.17
2019-02-24T09:45:54.668Z,6.83
2019-02-24T09:48:46.063Z,6.60
2019-02-24T09:51:37.420Z,6.80
2019-02-24T09:54:28.419Z,7.30
2019-02-24T09:57:19.299Z,7.57
2019-02-24T10:00:10.499Z,7.00
2019-02-24T10:03:01.060Z,8.40
2019-02-24T10:05:52.099Z,7.30
2019-02-24T10:08:42.819Z,9.00
2019-02-24T10:11:33.379Z,7.00
2019-02-24T10:14:23.939Z,7.63
2019-02-24T10:17:14.863Z,7.17
2019-02-24T10:20:06.352Z,7.63
2019-02-24T10:22:57.221Z,7.67
2019-02-24T10:25:47.242Z,7.07
2019-02-24T10:28:39.261Z,7.70
2019-02-24T10:31:30.181Z,7.50
2019-02-24T10:34:20.761Z,7.97
2019-02-24T10:37:11.601Z,8.93
2019-02-24T10:40:03.779Z,7.13
2019-02-24T10:42:54.980Z,7.13
2019-02-24T10:45:45.500Z,6.93
2019-02-24T10:48:35.957Z,6.50
2019-02-24T10:51:26.380Z,6.07
2019-02-24T10:54:16.719Z,6.57
2019-02-24T10:57:12.636Z,6.93
2019-02-24T10:59:59.935Z,6.80
2019-02-24T11:02:51.023Z,6.77
2019-02-24T11:05:41.379Z,7.50
2019-02-24T11:08:32.194Z,7.80
2019-02-24T11:11:22.859Z,7.70
2019-02-24T11:14:13.559Z,6.43
2019-02-24T11:17:04.879Z,7.03
2019-02-24T11:19:55.078Z,7.33
2019-02-24T11:22:46.336Z,6.57
2019-02-24T11:25:38.181Z,6.47
2019-02-24T11:28:28.408Z,6.13
2019-02-24T11:31:18.292Z,6.67
2019-02-24T11:34:09.540Z,6.03
2019-02-24T11:36:59.608Z,6.30
2019-02-24T11:39:50.659Z,6.37
2019-02-24T11:42:41.319Z,7.10
2019-02-24T11:45:31.500Z,6.63
2019-02-24T11:48:22.548Z,8.47
2019-02-24T11:51:12.560Z,6.80
2019-02-24T11:54:04.422Z,6.60
2019-02-24T11:56:54.382Z,7.93
2019-02-24T11:59:44.987Z,7.40
2019-02-24T12:02:35.485Z,7.67
2019-02-24T12:05:26.521Z,8.20
2019-02-24T12:08:16.899Z,7.07
2019-02-24T12:11:08.200Z,7.40
2019-02-24T12:13:58.232Z,6.87
2019-02-24T12:16:48.425Z,7.30
2019-02-24T12:19:38.780Z,7.13
2019-02-24T12:22:28.879Z,7.83
2019-02-24T12:25:19.700Z,7.07
2019-02-24T12:28:09.640Z,6.47
2019-02-24T12:30:59.641Z,7.33
2019-02-24T12:33:50.100Z,7.03
2019-02-24T12:36:41.674Z,6.47
2019-02-24T12:39:32.739Z,6.50
2019-02-24T12:42:23.899Z,7.43
2019-02-24T12:45:14.224Z,6.80
2019-02-24T12:48:05.382Z,7.60
2019-02-24T12:50:55.678Z,6.90
2019-02-24T12:53:45.799Z,5.83
2019-02-24T12:56:36.214Z,6.67
2019-02-24T12:59:26.185Z,6.33
2019-02-24T13:02:17.524Z,6.77
2019-02-24T13:05:08.743Z,6.00
2019-02-24T13:07:59.321Z,5.87
2019-02-24T13:10:50.010Z,5.27
2019-02-24T13:13:40.214Z,6.47
2019-02-24T13:16:30.961Z,6.17
2019-02-24T13:19:21.531Z,5.67
2019-02-24T13:22:12.538Z,6.07
2019-02-24T13:25:02.980Z,5.73
2019-02-24T13:27:53.220Z,5.53
2019-02-24T13:30:43.942Z,6.40
2019-02-24T13:33:34.055Z,5.20
2019-02-24T13:36:24.448Z,5.63
2019-02-24T13:39:14.963Z,8.50
2019-02-24T13:42:05.661Z,6.93
2019-02-24T13:44:56.580Z,5.77
2019-02-24T13:47:47.459Z,5.17
2019-02-24T13:50:38.660Z,4.60
2019-02-24T13:53:29.219Z,5.10
2019-02-24T13:56:19.758Z,3.83
2019-02-24T13:59:10.023Z,2.93
2019-02-24T14:02:01.960Z,2.17
2019-02-24T14:04:53.552Z,1.73
2019-02-24T14:07:43.780Z,2.43
2019-02-24T14:10:34.599Z,1.90
2019-02-24T14:13:25.299Z,3.00
2019-02-24T14:16:15.639Z,2.30
2019-02-24T14:19:06.181Z,2.40
2019-02-24T14:21:56.879Z,2.60
2019-02-24T14:24:47.016Z,2.37
2019-02-24T14:27:37.513Z,2.10
2019-02-24T14:30:28.099Z,2.23
2019-02-24T14:33:18.973Z,3.20
2019-02-24T14:36:09.105Z,2.90
2019-02-24T14:38:59.461Z,2.80
2019-02-24T14:41:50.343Z,3.40
2019-02-24T14:44:41.279Z,2.20
2019-02-24T14:47:31.078Z,3.00
2019-02-24T14:50:21.719Z,2.80
2019-02-24T14:53:12.712Z,2.37
2019-02-24T14:56:02.972Z,2.63
2019-02-24T14:58:53.425Z,2.70
2019-02-24T15:01:43.260Z,2.77
2019-02-24T15:04:33.402Z,3.23
2019-02-24T15:07:23.804Z,2.60
2019-02-24T15:10:15.180Z,5.53
2019-02-24T15:13:06.179Z,4.03
2019-02-24T15:15:56.310Z,6.40
2019-02-24T15:18:47.160Z,4.43
2019-02-24T15:21:37.859Z,3.03
2019-02-24T15:24:29.179Z,3.27
2019-02-24T15:27:19.618Z,4.07
2019-02-24T15:30:13.648Z,2.90
2019-02-24T15:33:03.980Z,3.17
2019-02-24T15:35:54.499Z,2.30
2019-02-24T15:38:44.879Z,2.60
2019-02-24T15:41:35.343Z,3.37
2019-02-24T15:44:25.727Z,2.53
2019-02-24T15:47:18.649Z,2.30
2019-02-24T15:50:09.520Z,4.10
2019-02-24T15:53:00.541Z,3.47
2019-02-24T15:55:51.620Z,2.87
2019-02-24T15:58:42.780Z,3.07
2019-02-24T16:01:33.339Z,2.93
2019-02-24T16:04:23.939Z,3.23
2019-02-24T16:07:14.979Z,2.90
2019-02-24T16:10:06.469Z,2.50
2019-02-24T16:12:57.369Z,2.43
2019-02-24T16:15:48.188Z,2.97
2019-02-24T16:18:39.281Z,2.80
2019-02-24T16:21:29.827Z,2.60
2019-02-24T16:24:22.660Z,2.70
2019-02-24T16:27:12.724Z,2.77
2019-02-24T16:30:04.040Z,3.20
2019-02-24T16:32:54.822Z,3.73
2019-02-24T16:35:46.240Z,3.13
2019-02-24T16:38:37.039Z,3.60
2019-02-24T16:41:27.859Z,3.20
2019-02-24T16:44:18.168Z,3.00
2019-02-24T16:47:08.778Z,3.13
2019-02-24T16:49:59.200Z,3.20
2019-02-24T16:52:49.324Z,3.37
2019-02-24T16:55:39.792Z,3.77
2019-02-24T16:58:31.464Z,3.63
2019-02-24T17:01:22.039Z,4.97
2019-02-24T17:04:12.391Z,13.63
2019-02-24T17:07:02.799Z,7.87
2019-02-24T17:09:52.951Z,4.90
2019-02-24T17:12:45.380Z,6.03
2019-02-24T17:15:36.328Z,4.40
2019-02-24T17:18:26.825Z,5.30
2019-02-24T17:21:17.132Z,4.40
2019-02-24T17:24:07.820Z,3.03
2019-02-24T17:26:59.140Z,3.73
2019-02-24T17:29:50.160Z,3.77
2019-02-24T17:32:39.959Z,2.60
2019-02-24T17:35:31.010Z,19.30
2019-02-24T17:38:21.327Z,8.93
2019-02-24T17:41:12.482Z,10.37
2019-02-24T17:44:03.139Z,7.63
2019-02-24T17:46:54.341Z,4.23
2019-02-24T17:49:46.500Z,3.50
2019-02-24T17:52:37.134Z,2.87
2019-02-24T17:55:27.619Z,3.47
2019-02-24T17:58:18.400Z,2.67
2019-02-24T18:01:08.606Z,3.00
2019-02-24T18:03:59.741Z,2.73
2019-02-24T18:06:50.399Z,2.60
2019-02-24T18:09:40.739Z,2.83
2019-02-24T18:12:30.839Z,2.40
2019-02-24T18:15:20.968Z,2.50
2019-02-24T18:18:11.459Z,2.37
2019-02-24T18:21:03.000Z,2.47
2019-02-24T18:23:53.861Z,3.07
2019-02-24T18:26:44.464Z,2.20
2019-02-24T18:29:34.980Z,2.63
2019-02-24T18:32:25.161Z,2.93
2019-02-24T18:35:15.783Z,4.77
2019-02-24T18:38:06.979Z,4.30
2019-02-24T18:40:58.878Z,3.60
2019-02-24T18:43:49.018Z,3.00
2019-02-24T18:46:39.781Z,2.50
2019-02-24T18:49:31.140Z,3.97
2019-02-24T18:52:22.079Z,2.47
2019-02-24T18:55:13.268Z,2.80
2019-02-24T18:58:03.782Z,3.47
2019-02-24T19:00:55.082Z,3.97
2019-02-24T19:03:45.719Z,3.73
2019-02-24T19:06:39.146Z,3.13
2019-02-24T19:09:27.832Z,2.57
2019-02-24T19:12:18.120Z,3.10
2019-02-24T19:15:10.400Z,3.17
2019-02-24T19:18:00.991Z,7.27
2019-02-24T19:20:51.463Z,6.03
2019-02-24T19:23:42.639Z,4.93
2019-02-24T19:26:33.145Z,3.73
2019-02-24T19:29:23.839Z,4.47
2019-02-24T19:32:13.856Z,3.93
2019-02-24T19:35:05.894Z,5.83
2019-02-24T19:37:56.280Z,6.03
2019-02-24T19:40:48.346Z,5.10
2019-02-24T19:43:38.762Z,5.30
2019-02-24T19:46:30.020Z,5.37
2019-02-24T19:49:21.654Z,4.80
2019-02-24T19:52:11.820Z,5.20
2019-02-24T19:55:02.599Z,6.23
2019-02-24T19:57:53.343Z,6.57
2019-02-24T20:00:44.339Z,5.90
2019-02-24T20:03:35.283Z,5.03
2019-02-24T20:06:26.180Z,4.23
2019-02-24T20:09:17.240Z,4.57
2019-02-24T20:12:08.579Z,4.30
2019-02-24T20:15:00.559Z,3.70
2019-02-24T20:17:51.621Z,3.90
2019-02-24T20:20:42.665Z,3.80
2019-02-24T20:23:34.003Z,3.60
2019-02-24T20:26:25.546Z,3.90
2019-02-24T20:29:16.719Z,4.40
2019-02-24T20:32:07.221Z,4.70
2019-02-24T20:34:59.206Z,3.53
2019-02-24T20:37:49.700Z,4.23
2019-02-24T20:40:40.139Z,3.30
2019-02-24T20:43:31.327Z,3.17
2019-02-24T20:46:21.659Z,3.93
2019-02-24T20:49:12.281Z,3.30
2019-02-24T20:52:02.759Z,3.40
2019-02-24T20:54:55.403Z,4.13
2019-02-24T20:57:46.699Z,2.93
2019-02-24T21:00:39.822Z,3.23
2019-02-24T21:03:30.299Z,2.87
2019-02-24T21:06:20.940Z,3.03
2019-02-24T21:09:11.665Z,3.10
2019-02-24T21:12:02.761Z,3.50
2019-02-24T21:14:53.499Z,3.80
2019-02-24T21:17:45.428Z,4.70
2019-02-24T21:20:38.157Z,4.37
2019-02-24T21:23:29.285Z,4.33
2019-02-24T21:26:20.206Z,6.30
2019-02-24T21:29:13.567Z,15.87
2019-02-24T21:32:05.385Z,18.77
2019-02-24T21:34:55.819Z,17.10
2019-02-24T21:37:47.239Z,6.30
2019-02-24T21:40:39.881Z,4.10
2019-02-24T21:43:30.759Z,5.50
2019-02-24T21:46:22.035Z,3.73
2019-02-24T21:49:12.906Z,3.17
2019-02-24T21:52:03.448Z,2.73
2019-02-24T21:54:53.724Z,4.40
2019-02-24T21:57:45.844Z,6.53
2019-02-24T22:00:36.640Z,5.03
2019-02-24T22:03:27.300Z,5.77
2019-02-24T22:06:17.729Z,3.93
2019-02-24T22:09:10.661Z,4.37
2019-02-24T22:12:01.540Z,4.37
2019-02-24T22:14:52.339Z,4.10
2019-02-24T22:17:42.864Z,4.33
2019-02-24T22:20:33.268Z,4.20
2019-02-24T22:23:23.759Z,4.40
2019-02-24T22:26:15.325Z,5.07
2019-02-24T22:29:06.179Z,5.60
2019-02-24T22:31:57.041Z,8.20
2019-02-24T22:34:48.560Z,10.20
2019-02-24T22:37:40.078Z,10.13
2019-02-24T22:40:30.959Z,11.67
2019-02-24T22:43:21.400Z,9.93
2019-02-24T22:46:11.603Z,10.33
2019-02-24T22:49:03.305Z,6.33
2019-02-24T22:51:55.759Z,3.77
2019-02-24T22:54:47.159Z,2.30
2019-02-24T22:57:37.540Z,1.90
2019-02-24T23:01:00.600Z,1.60
2019-02-24T23:03:51.620Z,1.90
2019-02-24T23:06:42.740Z,1.77
2019-02-24T23:09:33.540Z,1.90
2019-02-24T23:12:24.700Z,2.10
2019-02-24T23:15:15.199Z,2.90
2019-02-24T23:18:06.018Z,2.33
2019-02-24T23:20:56.758Z,2.00
2019-02-24T23:23:47.218Z,1.53
2019-02-24T23:26:38.020Z,2.23
2019-02-24T23:29:28.569Z,2.10
2019-02-24T23:32:20.102Z,2.17
2019-02-24T23:35:11.318Z,1.43
2019-02-24T23:38:02.624Z,1.67
2019-02-24T23:40:52.850Z,1.40
2019-02-24T23:43:43.534Z,1.40
2019-02-24T23:46:34.678Z,1.47
2019-02-24T23:49:28.761Z,1.30
2019-02-24T23:52:19.280Z,1.40
2019-02-24T23:55:09.842Z,1.43
2019-02-24T23:58:01.380Z,1.60
